Aviation Digital Data Service (ADDS)

Output produced by TAFs form (2347 UTC 30 September 2016)
found at http://aviationweather.gov/adds/tafs/
 
KLND 302334Z 0100/0124 VRB06KT P6SM VCSH FEW060 SCT100 
     FM010300 VRB06KT P6SM FEW080 
     FM012200 21007G15KT P6SM VCSH FEW070